AAL2205 KBDL-KORD
Flight info
| Callsign | AAL2205 |
|---|---|
| Flight time | N/A |
| Altitude | 36000 |
| Route | CTR CAM Q822 FNT WYNDE3 |
| Aircraft | B738/M-SDE2E3FGHIRWXY/LB1 |
Departure
| Time | 2026-05-01 13:59 |
|---|---|
| Airport | Bradley International Airport (KBDL) |
Arrival
| Time | N/A |
|---|---|
| Airport | Chicago O'Hare International Airport (KORD) |
| Time | Latitude | Longitude | Altitude | Speed | Heading |
|---|---|---|---|---|---|
| 2026-05-01 13:28 | 41.93170 | -72.68317 | 179 ft | 0 kts | 275° |
| 2026-05-01 13:47 | 41.93167 | -72.68287 | 179 ft | 4 kts | 285° |
| 2026-05-01 13:47 | 41.93157 | -72.68254 | 179 ft | 4 kts | 309° |
| 2026-05-01 13:47 | 41.93138 | -72.68235 | 180 ft | 4 kts | 359° |
| 2026-05-01 13:47 | 41.93124 | -72.68240 | 180 ft | 0 kts | 46° |
| 2026-05-01 13:51 | 41.93143 | -72.68214 | 180 ft | 10 kts | 46° |
| 2026-05-01 13:52 | 41.93204 | -72.68154 | 178 ft | 12 kts | 6° |
| 2026-05-01 13:52 | 41.93271 | -72.68212 | 177 ft | 12 kts | 314° |
| 2026-05-01 13:52 | 41.93333 | -72.68296 | 177 ft | 15 kts | 315° |
| 2026-05-01 13:52 | 41.93408 | -72.68398 | 175 ft | 15 kts | 315° |
| 2026-05-01 13:53 | 41.93481 | -72.68499 | 176 ft | 15 kts | 314° |
| 2026-05-01 13:53 | 41.93631 | -72.68704 | 178 ft | 16 kts | 314° |
| 2026-05-01 13:53 | 41.93687 | -72.68740 | 179 ft | 4 kts | 29° |
| 2026-05-01 13:54 | 41.93733 | -72.68685 | 178 ft | 15 kts | 45° |
| 2026-05-01 13:54 | 41.93829 | -72.68563 | 178 ft | 22 kts | 42° |
| 2026-05-01 13:54 | 41.93943 | -72.68425 | 177 ft | 22 kts | 42° |
| 2026-05-01 13:54 | 41.94054 | -72.68291 | 179 ft | 21 kts | 42° |
| 2026-05-01 13:55 | 41.94161 | -72.68161 | 181 ft | 20 kts | 41° |
| 2026-05-01 13:55 | 41.94265 | -72.68034 | 181 ft | 20 kts | 43° |
| 2026-05-01 13:55 | 41.94363 | -72.67907 | 180 ft | 19 kts | 44° |
| 2026-05-01 13:55 | 41.94458 | -72.67784 | 177 ft | 19 kts | 44° |
| 2026-05-01 13:56 | 41.94549 | -72.67664 | 176 ft | 18 kts | 44° |
| 2026-05-01 13:56 | 41.94638 | -72.67550 | 175 ft | 17 kts | 44° |
| 2026-05-01 13:56 | 41.94723 | -72.67438 | 175 ft | 17 kts | 45° |
| 2026-05-01 13:56 | 41.94804 | -72.67330 | 176 ft | 16 kts | 44° |
| 2026-05-01 13:57 | 41.94883 | -72.67230 | 174 ft | 15 kts | 43° |
| 2026-05-01 13:57 | 41.94934 | -72.67162 | 175 ft | 15 kts | 44° |
| 2026-05-01 13:57 | 41.94963 | -72.67144 | 175 ft | 8 kts | 2° |
| 2026-05-01 13:57 | 41.95029 | -72.67196 | 174 ft | 11 kts | 311° |
| 2026-05-01 13:58 | 41.95044 | -72.67230 | 174 ft | 4 kts | 290° |
| 2026-05-01 13:58 | 41.95026 | -72.67271 | 174 ft | 0 kts | 221° |
| 2026-05-01 13:58 | 41.94914 | -72.67418 | 174 ft | 58 kts | 224° |
| 2026-05-01 13:59 | 41.94456 | -72.68020 | 179 ft | 124 kts | 224° |
| 2026-05-01 13:59 | 41.93731 | -72.69007 | 303 ft | 166 kts | 226° |
| 2026-05-01 13:59 | 41.92859 | -72.70077 | 974 ft | 172 kts | 226° |
| 2026-05-01 13:59 | 41.91964 | -72.71162 | 1791 ft | 178 kts | 225° |
| 2026-05-01 14:00 | 41.91068 | -72.72296 | 2705 ft | 173 kts | 237° |
| 2026-05-01 14:00 | 41.90572 | -72.73755 | 3451 ft | 168 kts | 258° |
| 2026-05-01 14:00 | 41.90480 | -72.75311 | 4081 ft | 175 kts | 284° |
| 2026-05-01 14:00 | 41.91107 | -72.76788 | 4383 ft | 195 kts | 320° |
| 2026-05-01 14:01 | 41.92399 | -72.77594 | 4609 ft | 217 kts | 344° |
| 2026-05-01 14:01 | 41.93909 | -72.78108 | 5079 ft | 229 kts | 341° |
| 2026-05-01 14:01 | 41.95437 | -72.78819 | 5695 ft | 233 kts | 338° |
| 2026-05-01 14:01 | 41.96982 | -72.79582 | 6301 ft | 246 kts | 338° |
| 2026-05-01 14:02 | 41.98639 | -72.80399 | 6902 ft | 258 kts | 338° |
| 2026-05-01 14:02 | 42.00312 | -72.81214 | 7736 ft | 260 kts | 338° |
| 2026-05-01 14:02 | 42.02024 | -72.82039 | 8545 ft | 263 kts | 337° |
| 2026-05-01 14:02 | 42.03753 | -72.82867 | 9387 ft | 265 kts | 337° |
| 2026-05-01 14:03 | 42.05502 | -72.83700 | 10153 ft | 268 kts | 336° |
| 2026-05-01 14:03 | 42.07317 | -72.84567 | 10502 ft | 288 kts | 336° |
| 2026-05-01 14:03 | 42.09287 | -72.85508 | 10674 ft | 312 kts | 337° |
| 2026-05-01 14:03 | 42.11404 | -72.86517 | 10846 ft | 334 kts | 337° |
| 2026-05-01 14:04 | 42.13660 | -72.87587 | 11032 ft | 353 kts | 337° |
| 2026-05-01 14:04 | 42.16028 | -72.88707 | 11452 ft | 364 kts | 337° |
| 2026-05-01 14:04 | 42.18437 | -72.89843 | 12081 ft | 369 kts | 337° |
| 2026-05-01 14:04 | 42.20047 | -72.90604 | 12517 ft | 372 kts | 337° |
| 2026-05-01 14:05 | 42.23343 | -72.92164 | 13337 ft | 378 kts | 336° |
| 2026-05-01 14:05 | 42.25844 | -72.93352 | 13907 ft | 383 kts | 336° |
| 2026-05-01 14:05 | 42.28374 | -72.94555 | 14520 ft | 386 kts | 336° |
| 2026-05-01 14:05 | 42.30902 | -72.95803 | 15144 ft | 387 kts | 334° |
| 2026-05-01 14:06 | 42.33376 | -72.97150 | 15716 ft | 390 kts | 333° |
| 2026-05-01 14:06 | 42.35895 | -72.98577 | 16258 ft | 394 kts | 333° |
| 2026-05-01 14:06 | 42.38440 | -73.00030 | 16775 ft | 399 kts | 332° |
| 2026-05-01 14:06 | 42.41003 | -73.01487 | 17372 ft | 401 kts | 332° |
| 2026-05-01 14:07 | 42.43588 | -73.02947 | 17928 ft | 404 kts | 332° |
| 2026-05-01 14:07 | 42.46194 | -73.04412 | 18431 ft | 408 kts | 332° |
| 2026-05-01 14:07 | 42.48831 | -73.05890 | 18893 ft | 411 kts | 332° |
| 2026-05-01 14:08 | 42.54155 | -73.08870 | 19842 ft | 416 kts | 332° |
| 2026-05-01 14:08 | 42.56839 | -73.10373 | 20300 ft | 419 kts | 332° |
| 2026-05-01 14:08 | 42.59545 | -73.11890 | 20709 ft | 423 kts | 332° |
| 2026-05-01 14:08 | 42.62276 | -73.13422 | 21166 ft | 425 kts | 332° |
| 2026-05-01 14:09 | 42.65014 | -73.14960 | 21617 ft | 427 kts | 332° |
| 2026-05-01 14:09 | 42.67777 | -73.16512 | 22027 ft | 430 kts | 332° |
| 2026-05-01 14:09 | 42.70551 | -73.18074 | 22451 ft | 433 kts | 332° |
| 2026-05-01 14:09 | 42.73341 | -73.19646 | 22859 ft | 436 kts | 332° |
| 2026-05-01 14:10 | 42.76152 | -73.21231 | 23282 ft | 438 kts | 332° |
| 2026-05-01 14:10 | 42.78977 | -73.22825 | 23652 ft | 441 kts | 332° |
| 2026-05-01 14:10 | 42.81819 | -73.24430 | 23984 ft | 443 kts | 332° |
| 2026-05-01 14:10 | 42.84677 | -73.26047 | 24305 ft | 446 kts | 332° |
| 2026-05-01 14:11 | 42.87512 | -73.27652 | 24612 ft | 448 kts | 332° |
| 2026-05-01 14:11 | 42.93294 | -73.30938 | 25213 ft | 452 kts | 330° |
| 2026-05-01 14:11 | 42.95923 | -73.33189 | 25448 ft | 443 kts | 313° |
| 2026-05-01 14:12 | 42.97877 | -73.36382 | 25764 ft | 435 kts | 297° |
| 2026-05-01 14:12 | 42.99172 | -73.40082 | 26072 ft | 431 kts | 285° |
| 2026-05-01 14:12 | 42.99763 | -73.44069 | 26312 ft | 429 kts | 272° |
| 2026-05-01 14:12 | 42.99889 | -73.48146 | 26590 ft | 430 kts | 270° |
| 2026-05-01 14:13 | 42.99955 | -73.52240 | 26847 ft | 432 kts | 269° |
| 2026-05-01 14:13 | 42.99992 | -73.54962 | 27042 ft | 433 kts | 269° |
| 2026-05-01 14:13 | 43.00075 | -73.60453 | 27593 ft | 431 kts | 270° |
| 2026-05-01 14:13 | 43.00150 | -73.64538 | 28015 ft | 430 kts | 270° |
| 2026-05-01 14:14 | 43.00234 | -73.68621 | 28366 ft | 430 kts | 270° |
| 2026-05-01 14:14 | 43.00323 | -73.72701 | 28700 ft | 430 kts | 270° |
| 2026-05-01 14:14 | 43.00414 | -73.76785 | 29061 ft | 430 kts | 270° |
| 2026-05-01 14:14 | 43.00505 | -73.80821 | 29424 ft | 429 kts | 270° |
| 2026-05-01 14:15 | 43.00594 | -73.84900 | 29771 ft | 429 kts | 270° |
| 2026-05-01 14:15 | 43.00683 | -73.88976 | 30092 ft | 430 kts | 270° |
| 2026-05-01 14:15 | 43.00769 | -73.93057 | 30375 ft | 429 kts | 270° |
| 2026-05-01 14:15 | 43.00853 | -73.97124 | 30680 ft | 428 kts | 270° |
| 2026-05-01 14:16 | 43.00936 | -74.01188 | 30976 ft | 427 kts | 270° |
| 2026-05-01 14:16 | 43.01017 | -74.05245 | 31266 ft | 427 kts | 270° |
| 2026-05-01 14:16 | 43.01097 | -74.09298 | 31526 ft | 427 kts | 270° |
| 2026-05-01 14:16 | 43.01175 | -74.13345 | 31805 ft | 426 kts | 270° |
| 2026-05-01 14:17 | 43.01253 | -74.17391 | 32103 ft | 425 kts | 270° |
| 2026-05-01 14:17 | 43.01328 | -74.21429 | 32375 ft | 425 kts | 270° |
| 2026-05-01 14:17 | 43.01402 | -74.25465 | 32626 ft | 425 kts | 270° |
| 2026-05-01 14:17 | 43.01522 | -74.29497 | 32888 ft | 425 kts | 271° |
| 2026-05-01 14:18 | 43.01701 | -74.33531 | 33156 ft | 425 kts | 272° |
| 2026-05-01 14:18 | 43.01899 | -74.37557 | 33411 ft | 425 kts | 271° |
| 2026-05-01 14:18 | 43.02099 | -74.41579 | 33645 ft | 425 kts | 271° |
| 2026-05-01 14:18 | 43.02229 | -74.44252 | 33798 ft | 425 kts | 271° |
| 2026-05-01 14:19 | 43.02477 | -74.49582 | 34096 ft | 425 kts | 271° |
| 2026-05-01 14:19 | 43.02658 | -74.53615 | 34270 ft | 425 kts | 271° |
| 2026-05-01 14:19 | 43.02835 | -74.57659 | 34440 ft | 425 kts | 271° |
| 2026-05-01 14:19 | 43.03009 | -74.61696 | 34623 ft | 425 kts | 271° |
| 2026-05-01 14:20 | 43.03122 | -74.64364 | 34749 ft | 425 kts | 271° |
| 2026-05-01 14:20 | 43.03462 | -74.72435 | 35106 ft | 426 kts | 271° |
| 2026-05-01 14:20 | 43.03629 | -74.76475 | 35276 ft | 426 kts | 271° |
| 2026-05-01 14:21 | 43.03796 | -74.80522 | 35453 ft | 426 kts | 271° |
| 2026-05-01 14:21 | 43.03961 | -74.84559 | 35623 ft | 426 kts | 271° |
| 2026-05-01 14:21 | 43.04125 | -74.88602 | 35797 ft | 426 kts | 271° |
| 2026-05-01 14:22 | 43.04449 | -74.96693 | 35989 ft | 428 kts | 271° |
| 2026-05-01 14:22 | 43.04609 | -75.00757 | 35990 ft | 428 kts | 271° |
| 2026-05-01 14:22 | 43.04925 | -75.08868 | 36003 ft | 426 kts | 271° |
| 2026-05-01 14:23 | 43.05234 | -75.16937 | 36003 ft | 424 kts | 271° |
| 2026-05-01 14:23 | 43.05536 | -75.24961 | 36007 ft | 422 kts | 271° |
| 2026-05-01 14:24 | 43.05818 | -75.32920 | 36008 ft | 421 kts | 271° |
| 2026-05-01 14:24 | 43.06043 | -75.40921 | 36009 ft | 421 kts | 270° |
| 2026-05-01 14:25 | 43.06254 | -75.48927 | 36016 ft | 422 kts | 270° |
| 2026-05-01 14:25 | 43.06466 | -75.56955 | 36009 ft | 423 kts | 270° |
| 2026-05-01 14:26 | 43.06781 | -75.69062 | 35995 ft | 425 kts | 270° |
| 2026-05-01 14:27 | 43.06986 | -75.77156 | 36013 ft | 427 kts | 270° |
| 2026-05-01 14:27 | 43.07185 | -75.85285 | 36007 ft | 428 kts | 270° |
| 2026-05-01 14:28 | 43.07474 | -75.97496 | 36011 ft | 428 kts | 270° |
| 2026-05-01 14:28 | 43.07659 | -76.05590 | 36010 ft | 428 kts | 270° |
| 2026-05-01 14:29 | 43.07838 | -76.13730 | 36007 ft | 428 kts | 270° |
| 2026-05-01 14:30 | 43.08179 | -76.29978 | 36009 ft | 427 kts | 270° |
| 2026-05-01 14:31 | 43.08419 | -76.42132 | 36008 ft | 425 kts | 270° |
| 2026-05-01 14:31 | 43.08572 | -76.50225 | 36005 ft | 425 kts | 270° |
| 2026-05-01 14:32 | 43.08719 | -76.58302 | 36005 ft | 424 kts | 270° |
| 2026-05-01 14:32 | 43.08861 | -76.66361 | 36005 ft | 424 kts | 270° |
| 2026-05-01 14:33 | 43.08989 | -76.74362 | 36009 ft | 423 kts | 270° |
| 2026-05-01 14:33 | 43.09103 | -76.82415 | 36008 ft | 423 kts | 270° |
| 2026-05-01 14:34 | 43.09212 | -76.90464 | 36008 ft | 423 kts | 270° |
| 2026-05-01 14:34 | 43.09317 | -76.98508 | 36007 ft | 423 kts | 270° |
| 2026-05-01 14:35 | 43.09416 | -77.06553 | 36005 ft | 423 kts | 270° |
| 2026-05-01 14:35 | 43.09510 | -77.14600 | 36000 ft | 423 kts | 270° |
| 2026-05-01 14:36 | 43.09598 | -77.22602 | 36000 ft | 423 kts | 270° |
| 2026-05-01 14:36 | 43.09681 | -77.30653 | 35999 ft | 423 kts | 270° |
| 2026-05-01 14:37 | 43.09758 | -77.38709 | 35999 ft | 423 kts | 270° |
| 2026-05-01 14:37 | 43.09830 | -77.46756 | 36005 ft | 423 kts | 270° |
| 2026-05-01 14:38 | 43.09896 | -77.54805 | 36000 ft | 423 kts | 270° |
| 2026-05-01 14:38 | 43.09956 | -77.62844 | 35999 ft | 422 kts | 270° |
| 2026-05-01 14:39 | 43.10011 | -77.70877 | 35998 ft | 422 kts | 270° |
| 2026-05-01 14:39 | 43.10059 | -77.78909 | 36002 ft | 421 kts | 270° |
| 2026-05-01 14:40 | 43.10102 | -77.86867 | 36000 ft | 421 kts | 270° |
| 2026-05-01 14:40 | 43.10140 | -77.94868 | 35992 ft | 420 kts | 270° |
| 2026-05-01 14:41 | 43.10172 | -78.02869 | 35995 ft | 420 kts | 270° |
| 2026-05-01 14:41 | 43.10198 | -78.10857 | 35991 ft | 419 kts | 270° |
| 2026-05-01 14:42 | 43.10219 | -78.18825 | 35990 ft | 419 kts | 270° |
| 2026-05-01 14:42 | 43.10234 | -78.26792 | 35994 ft | 418 kts | 270° |
| 2026-05-01 14:43 | 43.10244 | -78.34755 | 35993 ft | 418 kts | 269° |
| 2026-05-01 14:43 | 43.10248 | -78.42713 | 35997 ft | 418 kts | 269° |
| 2026-05-01 14:44 | 43.10247 | -78.50669 | 36003 ft | 418 kts | 269° |
| 2026-05-01 14:44 | 43.10235 | -78.62530 | 36005 ft | 417 kts | 269° |
| 2026-05-01 14:45 | 43.10210 | -78.74445 | 35997 ft | 418 kts | 269° |
| 2026-05-01 14:46 | 43.10187 | -78.82386 | 35995 ft | 417 kts | 269° |
| 2026-05-01 14:46 | 43.10143 | -78.94311 | 35989 ft | 418 kts | 269° |
| 2026-05-01 14:47 | 43.10107 | -79.02261 | 35992 ft | 418 kts | 269° |
| 2026-05-01 14:48 | 43.10060 | -79.14186 | 36006 ft | 418 kts | 269° |
| 2026-05-01 14:48 | 43.09933 | -79.26119 | 36008 ft | 418 kts | 269° |
| 2026-05-01 14:49 | 43.09754 | -79.41986 | 36008 ft | 418 kts | 269° |
| 2026-05-01 14:50 | 43.09559 | -79.57896 | 36002 ft | 418 kts | 269° |
| 2026-05-01 14:51 | 43.09399 | -79.69821 | 35997 ft | 418 kts | 269° |
| 2026-05-01 14:52 | 43.09226 | -79.81732 | 35992 ft | 417 kts | 269° |
| 2026-05-01 14:53 | 43.09041 | -79.93657 | 35989 ft | 417 kts | 268° |
| 2026-05-01 14:53 | 43.08911 | -80.01596 | 36000 ft | 418 kts | 268° |
| 2026-05-01 14:54 | 43.08775 | -80.09545 | 35989 ft | 418 kts | 268° |
| 2026-05-01 14:54 | 43.08634 | -80.17495 | 35998 ft | 418 kts | 268° |
| 2026-05-01 14:55 | 43.08487 | -80.25446 | 35999 ft | 418 kts | 268° |
| 2026-05-01 14:55 | 43.08336 | -80.33341 | 36004 ft | 418 kts | 268° |
| 2026-05-01 14:56 | 43.08178 | -80.41290 | 36003 ft | 418 kts | 268° |
| 2026-05-01 14:56 | 43.08015 | -80.49223 | 36007 ft | 417 kts | 268° |
| 2026-05-01 14:57 | 43.07847 | -80.57165 | 36001 ft | 417 kts | 268° |
| 2026-05-01 14:57 | 43.07584 | -80.69064 | 36008 ft | 417 kts | 268° |
| 2026-05-01 14:58 | 43.07402 | -80.76995 | 36002 ft | 417 kts | 268° |
| 2026-05-01 14:58 | 43.07215 | -80.84929 | 36001 ft | 417 kts | 268° |
| 2026-05-01 14:59 | 43.07022 | -80.92855 | 35995 ft | 417 kts | 268° |
| 2026-05-01 14:59 | 43.06824 | -81.00786 | 35993 ft | 417 kts | 268° |
| 2026-05-01 15:00 | 43.06518 | -81.12685 | 35992 ft | 417 kts | 268° |
| 2026-05-01 15:01 | 43.06312 | -81.20618 | 35989 ft | 417 kts | 268° |
| 2026-05-01 15:01 | 43.06101 | -81.28551 | 35992 ft | 417 kts | 268° |
| 2026-05-01 15:02 | 43.05886 | -81.36477 | 36004 ft | 417 kts | 268° |
| 2026-05-01 15:02 | 43.05666 | -81.44355 | 35998 ft | 417 kts | 268° |
| 2026-05-01 15:03 | 43.05439 | -81.52287 | 36011 ft | 417 kts | 268° |
| 2026-05-01 15:03 | 43.05207 | -81.60214 | 36017 ft | 417 kts | 268° |
| 2026-05-01 15:04 | 43.04970 | -81.68145 | 36022 ft | 417 kts | 268° |
| 2026-05-01 15:04 | 43.04727 | -81.76058 | 36023 ft | 417 kts | 268° |
| 2026-05-01 15:05 | 43.04480 | -81.83974 | 36026 ft | 416 kts | 268° |
| 2026-05-01 15:05 | 43.04227 | -81.91883 | 36029 ft | 416 kts | 268° |
| 2026-05-01 15:06 | 43.03964 | -81.99788 | 36031 ft | 416 kts | 267° |
| 2026-05-01 15:06 | 43.03694 | -82.07696 | 36023 ft | 416 kts | 267° |
| 2026-05-01 15:07 | 43.03466 | -82.14270 | 36019 ft | 416 kts | 267° |
| 2026-05-01 15:07 | 43.03142 | -82.23466 | 36017 ft | 417 kts | 267° |
| 2026-05-01 15:08 | 43.02858 | -82.31376 | 36018 ft | 417 kts | 267° |
| 2026-05-01 15:08 | 43.02615 | -82.38004 | 36018 ft | 417 kts | 267° |
| 2026-05-01 15:09 | 43.02302 | -82.45862 | 36021 ft | 417 kts | 267° |
| 2026-05-01 15:09 | 43.01997 | -82.53772 | 36017 ft | 417 kts | 267° |
| 2026-05-01 15:10 | 43.01692 | -82.61682 | 36021 ft | 417 kts | 267° |
| 2026-05-01 15:10 | 43.01221 | -82.73561 | 36030 ft | 418 kts | 267° |
| 2026-05-01 15:11 | 43.00735 | -82.85458 | 36020 ft | 418 kts | 267° |
| 2026-05-01 15:12 | 43.00405 | -82.93395 | 36017 ft | 418 kts | 267° |
| 2026-05-01 15:12 | 42.99898 | -83.05297 | 36021 ft | 418 kts | 267° |
| 2026-05-01 15:14 | 42.99026 | -83.25142 | 36023 ft | 418 kts | 267° |
| 2026-05-01 15:14 | 42.98489 | -83.36997 | 36026 ft | 418 kts | 267° |
| 2026-05-01 15:15 | 42.97751 | -83.52854 | 36029 ft | 418 kts | 266° |
| 2026-05-01 15:16 | 42.96993 | -83.68706 | 36027 ft | 418 kts | 266° |
| 2026-05-01 15:18 | 42.95434 | -83.88428 | 36026 ft | 418 kts | 263° |
| 2026-05-01 15:19 | 42.93855 | -84.04108 | 36036 ft | 418 kts | 263° |
| 2026-05-01 15:19 | 42.92694 | -84.15899 | 36037 ft | 418 kts | 263° |
| 2026-05-01 15:20 | 42.91522 | -84.27687 | 36038 ft | 417 kts | 263° |
| 2026-05-01 15:21 | 42.90736 | -84.35524 | 36035 ft | 417 kts | 263° |
| 2026-05-01 15:21 | 42.89942 | -84.43376 | 36038 ft | 417 kts | 263° |
| 2026-05-01 15:22 | 42.88750 | -84.55078 | 35508 ft | 410 kts | 263° |
| 2026-05-01 15:22 | 42.88356 | -84.58915 | 35274 ft | 408 kts | 263° |
| 2026-05-01 15:22 | 42.87962 | -84.62742 | 35045 ft | 408 kts | 263° |
| 2026-05-01 15:23 | 42.87568 | -84.66567 | 34820 ft | 408 kts | 263° |
| 2026-05-01 15:23 | 42.87178 | -84.70342 | 34600 ft | 407 kts | 263° |
| 2026-05-01 15:23 | 42.86782 | -84.74160 | 34374 ft | 407 kts | 263° |
| 2026-05-01 15:23 | 42.86380 | -84.78033 | 34149 ft | 407 kts | 263° |
| 2026-05-01 15:24 | 42.85987 | -84.81799 | 33912 ft | 407 kts | 263° |
| 2026-05-01 15:24 | 42.85588 | -84.85623 | 33635 ft | 407 kts | 263° |
| 2026-05-01 15:24 | 42.85188 | -84.89438 | 33374 ft | 407 kts | 263° |
| 2026-05-01 15:24 | 42.84785 | -84.93258 | 33112 ft | 407 kts | 263° |
| 2026-05-01 15:25 | 42.84380 | -84.97074 | 32858 ft | 407 kts | 263° |
| 2026-05-01 15:25 | 42.83972 | -85.00904 | 32590 ft | 408 kts | 263° |
| 2026-05-01 15:25 | 42.83564 | -85.04727 | 32336 ft | 408 kts | 263° |
| 2026-05-01 15:25 | 42.83155 | -85.08553 | 32087 ft | 408 kts | 263° |
| 2026-05-01 15:26 | 42.82744 | -85.12381 | 31841 ft | 409 kts | 263° |
| 2026-05-01 15:26 | 42.82331 | -85.16218 | 31596 ft | 409 kts | 263° |
| 2026-05-01 15:26 | 42.81916 | -85.20058 | 31347 ft | 410 kts | 263° |
| 2026-05-01 15:26 | 42.81501 | -85.23894 | 31103 ft | 410 kts | 263° |
| 2026-05-01 15:27 | 42.81082 | -85.27743 | 30860 ft | 411 kts | 263° |
| 2026-05-01 15:27 | 42.80663 | -85.31594 | 30623 ft | 411 kts | 263° |
| 2026-05-01 15:27 | 42.80242 | -85.35444 | 30388 ft | 412 kts | 263° |
| 2026-05-01 15:28 | 42.79392 | -85.43195 | 30088 ft | 416 kts | 263° |
| 2026-05-01 15:28 | 42.78502 | -85.50951 | 30056 ft | 413 kts | 261° |
| 2026-05-01 15:29 | 42.76421 | -85.62417 | 29487 ft | 422 kts | 258° |
| 2026-05-01 15:29 | 42.75020 | -85.70049 | 28368 ft | 409 kts | 258° |
| 2026-05-01 15:30 | 42.73686 | -85.77453 | 27364 ft | 396 kts | 258° |
| 2026-05-01 15:31 | 42.71112 | -85.91628 | 25318 ft | 379 kts | 258° |
| 2026-05-01 15:31 | 42.69854 | -85.98528 | 24329 ft | 373 kts | 258° |
| 2026-05-01 15:32 | 42.68610 | -86.05317 | 23287 ft | 368 kts | 259° |
| 2026-05-01 15:32 | 42.67379 | -86.12001 | 22268 ft | 360 kts | 259° |
| 2026-05-01 15:33 | 42.65575 | -86.21771 | 20783 ft | 351 kts | 259° |
| 2026-05-01 15:34 | 42.63798 | -86.31338 | 19616 ft | 351 kts | 259° |